Time;durP1;ratioP1;P1;durP2;ratioP2;P2;SDS_P1;SDS_P2;PMS_P1;PMS_P2;Temp;Humidity;BMP_temperature;BMP_pressure;BME280_temperature;BME280_humidity;BME280_pressure;Samples;Min_cycle;Max_cycle;Signal;HPM_P1;HPM_P2
2023/02/17 00:02:21;;;;;;;42.27;19.77;;;;;;;6.18;100.00;101007.85;4971396;57;1143098;-68
2023/02/17 00:07:30;;;;;;;41.35;22.80;;;;;;;6.18;100.00;101010.48;5008655;55;1143318;-71
2023/02/17 00:12:35;;;;;;;43.70;22.90;;;;;;;6.19;100.00;101009.55;4997964;56;1140806;-70
2023/02/17 00:17:41;;;;;;;42.50;20.60;;;;;;;6.16;100.00;101003.98;4997957;57;1140999;-70
2023/02/17 00:22:47;;;;;;;42.67;23.80;;;;;;;6.15;100.00;100995.72;4997214;58;1143057;-66
2023/02/17 00:27:52;;;;;;;47.87;22.93;;;;;;;6.16;100.00;100994.80;5017243;57;1140879;-69
2023/02/17 00:32:58;;;;;;;49.63;22.90;;;;;;;6.15;100.00;100989.63;4900200;59;1141046;-67
2023/02/17 00:38:04;;;;;;;44.20;23.83;;;;;;;6.16;100.00;100984.30;4867429;58;1142935;-68
2023/02/17 00:43:10;;;;;;;44.20;23.73;;;;;;;6.17;100.00;100979.43;4953144;57;1142848;-70
2023/02/17 00:48:16;;;;;;;40.23;21.40;;;;;;;6.17;100.00;100982.52;4935166;57;1140926;-69
2023/02/17 00:53:23;;;;;;;37.43;19.17;;;;;;;6.16;100.00;100975.56;4935016;56;1140898;-70
2023/02/17 00:58:29;;;;;;;43.87;23.10;;;;;;;6.13;100.00;100984.45;4955038;56;1142854;-70
2023/02/17 01:03:34;;;;;;;48.47;22.97;;;;;;;6.10;100.00;100971.50;4935661;56;1141012;-68
2023/02/17 01:08:40;;;;;;;45.30;22.52;;;;;;;6.10;100.00;100972.81;5028568;56;1142974;-70
2023/02/17 01:13:46;;;;;;;46.37;21.83;;;;;;;6.08;100.00;100970.73;5031535;57;1141106;-68
2023/02/17 01:18:53;;;;;;;38.30;19.87;;;;;;;6.08;100.00;100956.75;5044051;57;1140807;-69
2023/02/17 01:24:04;;;;;;;32.58;17.52;;;;;;;6.07;100.00;100954.58;5045476;57;1142865;-70
2023/02/17 01:29:10;;;;;;;37.27;20.37;;;;;;;6.05;100.00;100944.63;4993279;55;1140972;-69
2023/02/17 01:34:16;;;;;;;40.65;20.27;;;;;;;6.07;100.00;100930.95;4907737;57;1143077;-67
2023/02/17 01:39:22;;;;;;;42.33;22.90;;;;;;;6.07;100.00;100927.02;4892003;57;1140801;-68
2023/02/17 01:44:32;;;;;;;43.10;21.33;;;;;;;6.06;100.00;100925.78;4949900;57;1141111;-70
2023/02/17 01:49:40;;;;;;;40.73;21.40;;;;;;;6.06;100.00;100921.37;4968805;57;1143371;-70
2023/02/17 01:54:57;;;;;;;33.27;19.07;;;;;;;6.04;100.00;100915.81;4949759;57;1140941;-68
2023/02/17 02:00:08;;;;;;;39.23;20.00;;;;;;;6.02;100.00;100905.86;4950008;57;1140770;-67
2023/02/17 02:05:20;;;;;;;31.90;19.20;;;;;;;5.97;100.00;100895.13;4969241;57;1142958;-67
2023/02/17 02:10:26;;;;;;;45.40;20.00;;;;;;;5.95;100.00;100895.70;4966272;57;1140786;-69
2023/02/17 02:15:37;;;;;;;42.50;20.30;;;;;;;5.93;100.00;100886.20;5031321;56;1140876;-69
2023/02/17 02:21:21;;;;;;;37.10;20.67;;;;;;;5.92;100.00;100881.88;5030864;57;1143036;-68
2023/02/17 02:27:10;;;;;;;38.73;19.23;;;;;;;5.89;100.00;100873.69;5050695;57;1140842;-67
2023/02/17 02:32:48;;;;;;;31.48;19.15;;;;;;;5.90;100.00;100869.29;4847059;59;1141167;-67
2023/02/17 02:38:05;;;;;;;39.47;21.13;;;;;;;5.89;100.00;100865.81;4927852;58;1143035;-67
2023/02/17 02:43:12;;;;;;;38.35;20.12;;;;;;;5.90;100.00;100865.34;5014316;57;1141051;-69
2023/02/17 02:48:18;;;;;;;42.15;19.20;;;;;;;5.91;100.00;100862.65;5050621;57;1142853;-68
2023/02/17 02:53:55;;;;;;;40.45;19.10;;;;;;;5.91;100.00;100852.15;5030711;56;1140964;-68
2023/02/17 02:59:15;;;;;;;38.88;19.25;;;;;;;5.91;100.00;100844.73;4928857;58;1140873;-70
2023/02/17 03:04:47;;;;;;;35.33;19.17;;;;;;;5.89;100.00;100837.41;4929348;57;1143018;-68
2023/02/17 03:09:56;;;;;;;32.33;18.80;;;;;;;5.92;100.00;100846.44;4923813;58;1141089;-70
2023/02/17 03:15:32;;;;;;;44.20;21.55;;;;;;;5.93;100.00;100846.36;4952729;57;1141038;-70
2023/02/17 03:20:56;;;;;;;38.33;19.77;;;;;;;5.93;100.00;100838.48;4928165;58;1140940;-68
2023/02/17 03:26:03;;;;;;;38.03;19.60;;;;;;;5.94;100.00;100830.14;4928187;58;1141078;-70
2023/02/17 03:31:09;;;;;;;38.83;19.87;;;;;;;5.93;100.00;100826.67;4935118;57;1142980;-69
2023/02/17 03:36:14;;;;;;;33.73;20.07;;;;;;;5.92;100.00;100824.97;5008044;57;1140994;-68
2023/02/17 03:41:21;;;;;;;42.43;20.63;;;;;;;5.89;100.00;100817.72;4987088;57;1140950;-69
2023/02/17 03:46:27;;;;;;;42.40;22.63;;;;;;;5.87;100.00;100812.98;4987819;57;1142926;-69
2023/02/17 03:51:34;;;;;;;33.80;19.57;;;;;;;5.84;100.00;100811.82;5007436;57;1140770;-69
2023/02/17 03:56:40;;;;;;;35.40;20.17;;;;;;;5.84;100.00;100798.70;4987912;57;1143033;-69
2023/02/17 04:01:46;;;;;;;36.03;20.70;;;;;;;5.83;100.00;100795.22;4987396;57;1143003;-69
2023/02/17 04:06:52;;;;;;;33.23;19.90;;;;;;;5.82;100.00;100784.34;5007364;57;1140771;-67
2023/02/17 04:11:58;;;;;;;39.00;20.73;;;;;;;5.82;100.00;100782.18;4984501;57;1143012;-68
2023/02/17 04:17:04;;;;;;;35.20;19.37;;;;;;;5.79;100.00;100779.28;4984435;56;1140870;-68
2023/02/17 04:22:10;;;;;;;35.70;20.32;;;;;;;5.79;100.00;100776.66;5003842;58;1140898;-68
2023/02/17 04:27:16;;;;;;;37.08;20.85;;;;;;;5.81;100.00;100773.45;4984634;57;1143127;-69
2023/02/17 04:32:22;;;;;;;42.90;22.93;;;;;;;5.76;100.00;100774.19;4924329;57;1140836;-67
2023/02/17 04:37:28;;;;;;;39.47;20.30;;;;;;;5.71;100.00;100759.14;4943772;58;1140818;-70
2023/02/17 04:42:33;;;;;;;38.37;21.03;;;;;;;5.69;100.00;100752.28;4852032;58;1143043;-68
2023/02/17 04:47:39;;;;;;;42.23;24.35;;;;;;;5.64;100.00;100743.36;4740216;60;1140731;-68
2023/02/17 04:52:45;;;;;;;37.45;22.10;;;;;;;5.59;100.00;100736.20;4736245;60;1142987;-69
2023/02/17 04:57:52;;;;;;;38.37;22.27;;;;;;;5.58;100.00;100734.03;4758813;60;1142979;-70
2023/02/17 05:02:57;;;;;;;43.53;23.47;;;;;;;5.53;100.00;100725.55;4811025;58;1140895;-68
2023/02/17 05:08:05;;;;;;;42.20;25.20;;;;;;;5.52;100.00;100726.48;4967133;57;1143035;-70
2023/02/17 05:13:10;;;;;;;38.00;21.60;;;;;;;5.51;100.00;100719.53;4861616;58;1143127;-69
2023/02/17 05:18:16;;;;;;;39.87;22.70;;;;;;;5.48;100.00;100711.00;4848396;59;1143185;-69
2023/02/17 05:23:23;;;;;;;39.33;21.30;;;;;;;5.48;100.00;100723.66;4852746;58;1143173;-71
2023/02/17 05:28:29;;;;;;;39.70;21.45;;;;;;;5.44;100.00;100716.02;4871107;58;1141026;-68
2023/02/17 05:33:35;;;;;;;42.10;21.73;;;;;;;5.41;100.00;100713.56;4850378;57;1142941;-70
2023/02/17 05:38:41;;;;;;;39.20;21.20;;;;;;;5.37;100.00;100703.69;4852294;58;1143128;-68
2023/02/17 05:43:48;;;;;;;32.30;19.77;;;;;;;5.37;100.00;100703.69;4784087;58;1142996;-66
2023/02/17 05:48:53;;;;;;;38.60;21.87;;;;;;;5.35;100.00;100696.36;4795057;59;1142908;-70
2023/02/17 05:53:59;;;;;;;44.35;22.65;;;;;;;5.32;100.00;100689.99;4776312;59;1140769;-69
2023/02/17 05:59:06;;;;;;;43.73;23.40;;;;;;;5.27;100.00;100691.54;4853806;59;1140842;-69
2023/02/17 06:04:11;;;;;;;42.30;23.45;;;;;;;5.28;100.00;100689.30;4886137;58;1142962;-66
2023/02/17 06:09:17;;;;;;;39.38;22.73;;;;;;;5.25;100.00;100673.72;4852311;59;1143109;-68
2023/02/17 06:14:25;;;;;;;39.55;19.80;;;;;;;5.26;100.00;100680.66;4864035;57;1143225;-68
2023/02/17 06:19:31;;;;;;;34.57;18.80;;;;;;;5.27;100.00;100676.27;4953870;57;1142879;-66
2023/02/17 06:24:37;;;;;;;34.43;18.37;;;;;;;5.27;100.00;100677.58;4933822;57;1142852;-70
2023/02/17 06:29:43;;;;;;;36.73;19.90;;;;;;;5.28;100.00;100676.66;4932873;58;1142865;-69
2023/02/17 06:34:49;;;;;;;36.07;21.17;;;;;;;5.26;100.00;100669.33;4932764;58;1143101;-67
2023/02/17 06:39:55;;;;;;;36.30;18.47;;;;;;;5.25;100.00;100673.72;4952243;58;1142979;-69
2023/02/17 06:45:04;;;;;;;40.77;19.43;;;;;;;5.24;100.00;100675.11;4934755;57;1143015;-70
2023/02/17 06:50:09;;;;;;;41.60;24.03;;;;;;;5.17;100.00;100658.03;4955713;56;1140957;-69
2023/02/17 06:55:15;;;;;;;36.58;20.52;;;;;;;5.21;100.00;100668.72;4942634;57;1142863;-68
2023/02/17 07:00:23;;;;;;;43.43;23.80;;;;;;;5.20;100.00;100666.55;4901623;56;1143015;-66
2023/02/17 07:05:28;;;;;;;37.33;21.33;;;;;;;5.22;100.00;100658.61;4906971;57;1142809;-70
2023/02/17 07:10:34;;;;;;;39.67;23.67;;;;;;;5.25;100.00;100658.45;4920323;56;1142894;-66
2023/02/17 07:15:40;;;;;;;36.87;19.27;;;;;;;5.25;100.00;100656.68;4856865;57;1142981;-68
2023/02/17 07:20:47;;;;;;;44.10;23.73;;;;;;;5.27;100.00;100652.67;4856566;57;1143118;-66
2023/02/17 07:25:53;;;;;;;44.73;23.13;;;;;;;5.29;100.00;100652.97;4856726;57;1143010;-70
2023/02/17 07:31:09;;;;;;;51.65;26.30;;;;;;;5.30;100.00;100640.25;4873966;57;1142921;-68
2023/02/17 07:36:17;;;;;;;42.23;23.47;;;;;;;5.30;100.00;100633.69;4776657;58;1142982;-67
2023/02/17 07:41:27;;;;;;;43.48;25.32;;;;;;;5.33;100.00;100638.39;4870095;57;1142908;-70
2023/02/17 07:46:33;;;;;;;43.97;24.43;;;;;;;5.34;100.00;100637.00;4895897;57;1142943;-69
2023/02/17 07:51:39;;;;;;;38.90;21.97;;;;;;;5.35;100.00;100630.80;4876723;58;1142888;-71
2023/02/17 07:56:45;;;;;;;43.73;24.27;;;;;;;5.36;100.00;100626.40;4876267;58;1142977;-70
2023/02/17 08:01:50;;;;;;;50.73;25.97;;;;;;;5.38;100.00;100621.92;4876389;58;1142944;-70
2023/02/17 08:06:56;;;;;;;41.80;24.20;;;;;;;5.39;100.00;100622.30;4895840;58;1142827;-68
2023/02/17 08:17:25;;;;;;;47.67;26.53;;;;;;;5.47;100.00;100609.63;4876872;58;1143081;-70
2023/02/17 08:22:31;;;;;;;43.92;24.20;;;;;;;5.49;100.00;100602.53;4974302;57;1143200;-68
2023/02/17 08:27:37;;;;;;;50.17;25.77;;;;;;;5.51;100.00;100591.00;4958429;57;1143029;-70
2023/02/17 08:32:46;;;;;;;45.63;24.57;;;;;;;5.53;100.00;100586.52;4957915;56;1142938;-69
2023/02/17 08:37:52;;;;;;;51.53;26.15;;;;;;;5.56;100.00;100586.35;5030326;57;1143091;-68
2023/02/17 08:42:58;;;;;;;45.57;24.23;;;;;;;5.57;100.00;100581.95;5048993;57;1143045;-68
2023/02/17 08:48:06;;;;;;;45.90;25.90;;;;;;;5.60;100.00;100573.91;5030135;57;1142947;-69
2023/02/17 08:53:12;;;;;;;47.50;26.27;;;;;;;5.61;100.00;100563.34;5030436;57;1143305;-68
2023/02/17 08:58:18;;;;;;;47.38;24.35;;;;;;;5.59;100.00;100555.17;5050129;57;1142954;-67
2023/02/17 09:03:24;;;;;;;44.85;25.72;;;;;;;5.62;100.00;100553.69;5030660;56;1142885;-68
2023/02/17 09:08:30;;;;;;;49.63;24.40;;;;;;;5.66;100.00;100561.28;5030359;57;1142930;-68
2023/02/17 09:13:37;;;;;;;44.83;26.73;;;;;;;5.63;100.00;100547.52;5050206;57;1143157;-69
2023/02/17 09:18:43;;;;;;;47.23;24.67;;;;;;;5.70;100.00;100544.91;5030769;57;1143054;-67
2023/02/17 09:23:52;;;;;;;46.92;26.50;;;;;;;5.77;100.00;100553.28;5030744;57;1143003;-67
2023/02/17 09:28:58;;;;;;;53.30;25.40;;;;;;;5.80;100.00;100546.55;5050878;57;1143104;-68
2023/02/17 09:34:04;;;;;;;40.07;23.50;;;;;;;5.83;100.00;100545.89;5030897;57;1142909;-67
2023/02/17 09:39:12;;;;;;;40.57;24.30;;;;;;;5.87;100.00;100540.84;5011509;57;1142971;-69
2023/02/17 09:44:40;;;;;;;35.52;21.95;;;;;;;5.90;100.00;100524.96;5050963;56;1143068;-70
2023/02/17 09:49:51;;;;;;;38.53;22.73;;;;;;;5.93;100.00;100513.44;5030604;57;1143154;-66
2023/02/17 09:55:23;;;;;;;31.70;18.97;;;;;;;5.96;100.00;100516.70;5030721;57;1143023;-70
2023/02/17 10:00:36;;;;;;;31.67;18.63;;;;;;;6.02;100.00;100495.83;5045964;57;1143042;-69
2023/02/17 10:05:47;;;;;;;30.00;19.33;;;;;;;6.07;100.00;100490.31;5027345;57;1143197;-69
2023/02/17 10:10:59;;;;;;;30.43;17.20;;;;;;;6.11;100.00;100467.70;5030677;57;1143110;-70
2023/02/17 10:16:09;;;;;;;27.60;18.50;;;;;;;6.15;100.00;100471.84;5050734;57;1143042;-69
2023/02/17 10:21:23;;;;;;;30.07;17.07;;;;;;;6.20;100.00;100461.06;5030793;57;1142991;-67
2023/02/17 10:26:52;;;;;;;28.30;18.07;;;;;;;6.25;100.00;100458.55;5030861;57;1142795;-71
2023/02/17 10:32:23;;;;;;;35.23;21.27;;;;;;;6.28;100.00;100443.89;5030677;57;1142937;-69
2023/02/17 10:37:33;;;;;;;30.67;20.30;;;;;;;6.40;100.00;100436.22;5024936;57;1142990;-69
2023/02/17 10:42:40;;;;;;;24.53;15.03;;;;;;;6.47;100.00;100423.91;4806248;58;1143183;-69
2023/02/17 10:47:46;;;;;;;27.57;18.63;;;;;;;6.53;100.00;100404.31;4979450;57;1142990;-70
2023/02/17 10:52:55;;;;;;;26.97;15.83;;;;;;;6.59;100.00;100392.92;5030417;57;1143083;-69
2023/02/17 10:58:29;;;;;;;23.40;17.03;;;;;;;6.65;100.00;100383.35;5050639;56;1142901;-67
2023/02/17 11:03:37;;;;;;;23.50;15.65;;;;;;;6.69;100.00;100365.61;5019971;57;1142848;-67
2023/02/17 11:08:55;;;;;;;58.47;39.37;;;;;;;6.74;100.00;100335.07;4987714;57;1142994;-70
2023/02/17 11:14:12;;;;;;;45.83;31.33;;;;;;;6.80;100.00;100326.33;4948568;57;1143099;-67
2023/02/17 11:19:28;;;;;;;38.23;27.57;;;;;;;6.84;100.00;100315.15;4968133;57;1142992;-70
2023/02/17 11:24:37;;;;;;;33.23;22.67;;;;;;;6.90;100.00;100292.38;4952625;56;1143019;-70
2023/02/17 11:29:43;;;;;;;31.87;19.87;;;;;;;6.96;100.00;100275.75;4906635;56;1143060;-67
2023/02/17 11:34:53;;;;;;;28.02;20.27;;;;;;;7.03;100.00;100261.23;4933170;57;1143022;-67
2023/02/17 11:39:59;;;;;;;37.83;24.10;;;;;;;7.08;100.00;100253.04;4923849;57;1142866;-69
2023/02/17 11:45:19;;;;;;;28.67;17.60;;;;;;;7.14;100.00;100239.49;4932327;58;1142938;-70
2023/02/17 11:50:32;;;;;;;26.15;18.85;;;;;;;7.19;100.00;100224.69;4865216;57;1142975;-67
2023/02/17 11:55:58;;;;;;;20.32;15.90;;;;;;;7.23;100.00;100219.13;4870179;58;1143115;-67
2023/02/17 12:01:30;;;;;;;24.47;15.53;;;;;;;7.27;100.00;100200.88;4906420;56;1143082;-69
2023/02/17 12:07:13;;;;;;;22.97;16.97;;;;;;;7.32;100.00;100200.09;4909267;56;1143113;-69
2023/02/17 12:12:57;;;;;;;20.15;14.90;;;;;;;7.38;100.00;100191.77;4861728;57;1142908;-69
2023/02/17 12:18:25;;;;;;;36.35;24.43;;;;;;;7.43;100.00;100184.03;4909536;57;1143044;-72
2023/02/17 12:24:09;;;;;;;57.93;37.13;;;;;;;7.46;100.00;100164.94;4917034;57;1142872;-72
2023/02/17 12:30:09;;;;;;;47.87;34.00;;;;;;;7.50;100.00;100154.53;4917776;56;1142994;-66
2023/02/17 12:35:19;;;;;;;81.97;48.07;;;;;;;7.54;100.00;100148.59;4932449;57;1142926;-69
2023/02/17 12:40:38;;;;;;;34.65;15.18;;;;;;;7.57;100.00;100129.48;4924143;57;1143134;-68
2023/02/17 12:45:48;;;;;;;31.13;16.87;;;;;;;7.60;100.00;100129.74;4855254;57;1143170;-70
2023/02/17 12:51:14;;;;;;;28.73;15.67;;;;;;;7.65;100.00;100111.81;4870001;57;1143043;-66
2023/02/17 12:56:30;;;;;;;21.90;13.72;;;;;;;7.66;100.00;100078.80;4943848;55;1143032;-70
2023/02/17 13:01:38;;;;;;;22.87;15.47;;;;;;;7.71;100.00;100086.38;4873664;56;1143022;-71
2023/02/17 13:06:49;;;;;;;25.97;14.30;;;;;;;7.73;100.00;100076.58;4928785;56;1142972;-70
2023/02/17 13:11:54;;;;;;;24.60;14.90;;;;;;;7.75;100.00;100063.67;4945665;56;1142823;-69
2023/02/17 13:17:00;;;;;;;36.93;18.87;;;;;;;7.78;100.00;100042.88;4914024;56;1142907;-67
2023/02/17 13:22:06;;;;;;;31.23;14.97;;;;;;;7.80;100.00;100033.05;4931906;57;1142899;-70
2023/02/17 13:27:34;;;;;;;22.23;13.27;;;;;;;7.82;100.00;100021.09;4959076;56;1143013;-71
2023/02/17 13:32:40;;;;;;;25.97;14.43;;;;;;;7.84;100.00;99998.12;4936515;56;1143225;-71
2023/02/17 13:37:47;;;;;;;19.20;13.27;;;;;;;7.86;100.00;99983.89;4918972;57;1140919;-70
2023/02/17 13:42:59;;;;;;;15.55;10.98;;;;;;;7.89;100.00;99963.09;4948147;58;1141058;-68
2023/02/17 13:48:22;;;;;;;15.43;11.08;;;;;;;7.90;100.00;99954.23;4901123;58;1140781;-70
2023/02/17 13:53:35;;;;;;;16.00;11.22;;;;;;;7.91;100.00;99937.01;4962696;57;1140845;-69
2023/02/17 13:58:42;;;;;;;20.57;13.75;;;;;;;7.93;100.00;99913.20;4961055;57;1140822;-71
2023/02/17 14:03:52;;;;;;;19.47;11.10;;;;;;;7.96;100.00;99914.25;4961045;57;1141338;-69
2023/02/17 14:08:59;;;;;;;16.53;11.73;;;;;;;7.99;100.00;99885.06;4947914;57;1141135;-71
2023/02/17 14:14:07;;;;;;;15.93;10.53;;;;;;;8.01;100.00;99868.67;4964041;57;1141110;-70
2023/02/17 14:19:18;;;;;;;14.25;10.43;;;;;;;8.03;100.00;99851.80;4976735;57;1140937;-68
2023/02/17 14:24:32;;;;;;;14.18;9.70;;;;;;;8.06;100.00;99858.15;4969153;57;1140822;-67
2023/02/17 14:29:47;;;;;;;17.52;10.30;;;;;;;8.07;100.00;99841.39;4962073;57;1138899;-71
2023/02/17 14:34:53;;;;;;;12.83;9.87;;;;;;;8.11;100.00;99834.91;4933435;57;1140940;-66
2023/02/17 14:39:58;;;;;;;14.47;10.48;;;;;;;8.13;100.00;99816.35;4932612;56;1138963;-67
2023/02/17 14:45:05;;;;;;;11.83;9.03;;;;;;;8.17;100.00;99827.49;4953120;56;1141014;-68
2023/02/17 14:50:11;;;;;;;15.83;8.10;;;;;;;8.19;100.00;99820.31;4933568;58;1138841;-70
2023/02/17 14:55:40;;;;;;;11.00;7.07;;;;;;;8.19;100.00;99811.09;4933646;56;1138791;-69
2023/02/17 15:00:46;;;;;;;26.83;17.43;;;;;;;8.22;100.00;99798.52;4930859;56;1138886;-70
2023/02/17 15:05:52;;;;;;;13.83;8.73;;;;;;;8.26;100.00;99794.66;4950338;56;1140995;-70
2023/02/17 15:10:59;;;;;;;15.77;9.30;;;;;;;8.31;100.00;99783.29;4933327;56;1138890;-68
2023/02/17 15:16:06;;;;;;;11.63;8.53;;;;;;;8.35;100.00;99784.77;4910732;57;1138732;-71
2023/02/17 15:21:33;;;;;;;12.10;8.97;;;;;;;8.41;100.00;99790.00;4953153;56;1138897;-70
2023/02/17 15:26:39;;;;;;;12.77;8.53;;;;;;;8.45;100.00;99776.46;4933116;57;1138867;-69
2023/02/17 15:31:46;;;;;;;11.97;9.10;;;;;;;8.51;100.00;99761.12;4945963;57;1138962;-72
2023/02/17 15:36:52;;;;;;;9.43;8.10;;;;;;;8.55;100.00;99752.86;5014425;57;1138968;-73
2023/02/17 15:42:03;;;;;;;15.83;9.63;;;;;;;8.59;100.00;99738.92;5049998;57;1136709;-70
2023/02/17 15:47:16;;;;;;;15.57;9.33;;;;;;;8.63;100.00;99746.47;4958222;55;1138817;-73
2023/02/17 15:52:21;;;;;;;15.00;9.57;;;;;;;8.65;100.00;99727.41;5023780;57;1138756;-70
2023/02/17 15:57:27;;;;;;;10.77;8.47;;;;;;;8.71;100.00;99728.20;4972264;57;1138892;-68
2023/02/17 16:02:33;;;;;;;20.10;11.70;;;;;;;8.73;100.00;99723.65;4854016;58;1138784;-73
2023/02/17 16:07:40;;;;;;;11.83;7.83;;;;;;;8.75;100.00;99711.18;4968966;57;1140823;-74
2023/02/17 16:12:48;;;;;;;11.23;8.03;;;;;;;8.79;100.00;99727.11;4947994;56;1138822;-73
2023/02/17 16:17:59;;;;;;;8.95;7.70;;;;;;;8.84;100.00;99724.58;5046631;57;1138671;-70
2023/02/17 16:23:02;;;;;;;12.03;8.13;;;;;;;8.87;100.00;99724.30;5023090;56;1136738;-73
2023/02/17 16:28:12;;;;;;;10.60;8.20;;;;;;;8.90;100.00;99732.80;5028678;56;1138745;-73
2023/02/17 16:33:20;;;;;;;12.67;8.57;;;;;;;8.95;100.00;99728.47;5014705;57;1139000;-71
2023/02/17 16:38:25;;;;;;;13.37;8.43;;;;;;;8.97;100.00;99733.14;4875253;57;1138922;-77
2023/02/17 16:43:32;;;;;;;13.83;7.97;;;;;;;9.01;100.00;99728.78;4826161;57;1138779;-70
2023/02/17 16:48:38;;;;;;;11.30;7.50;;;;;;;9.03;100.00;99721.58;4840370;57;1138779;-70
2023/02/17 16:53:44;;;;;;;8.73;7.10;;;;;;;9.06;100.00;99715.22;4813869;57;1138772;-69
2023/02/17 16:58:49;;;;;;;12.73;7.77;;;;;;;9.08;100.00;99704.05;4855230;58;1136890;-72
2023/02/17 17:03:56;;;;;;;11.80;6.50;;;;;;;9.11;100.00;99707.76;4873337;58;1138804;-74
2023/02/17 17:09:02;;;;;;;12.30;7.20;;;;;;;9.13;100.00;99697.44;4852429;58;1138833;-73
2023/02/17 17:14:07;;;;;;;7.30;6.00;;;;;;;9.16;100.00;99691.07;4860717;58;1138865;-72
2023/02/17 17:19:14;;;;;;;8.70;6.60;;;;;;;9.17;100.00;99688.75;4936060;58;1136838;-73
2023/02/17 17:24:20;;;;;;;13.35;6.75;;;;;;;9.19;100.00;99698.70;4857239;57;1143918;-73
2023/02/17 17:29:26;;;;;;;9.05;6.50;;;;;;;9.22;100.00;99697.61;4858350;57;1138717;-74
2023/02/17 17:34:32;;;;;;;13.53;6.40;;;;;;;9.24;100.00;99700.95;4876829;57;1136730;-70
2023/02/17 17:39:38;;;;;;;7.47;5.63;;;;;;;9.26;100.00;99703.82;5012363;57;1138967;-69
2023/02/17 17:44:44;;;;;;;7.30;5.93;;;;;;;9.30;100.00;99692.53;5002875;56;1136805;-70
2023/02/17 17:49:51;;;;;;;9.15;5.75;;;;;;;9.34;100.00;99687.32;5031685;56;1136941;-69
2023/02/17 17:54:56;;;;;;;5.83;4.77;;;;;;;9.37;100.00;99684.42;5037125;56;1136819;-73
2023/02/17 18:00:04;;;;;;;9.17;4.83;;;;;;;9.42;100.00;99687.52;5031454;56;1136705;-72
2023/02/17 18:05:12;;;;;;;11.47;5.73;;;;;;;9.46;100.00;99688.45;5030453;56;1136744;-69
2023/02/17 18:10:18;;;;;;;7.83;4.87;;;;;;;9.51;100.00;99686.70;5069579;57;1138916;-72
2023/02/17 18:15:24;;;;;;;5.55;5.05;;;;;;;9.56;100.00;99687.64;5024135;56;1136770;-70
2023/02/17 18:20:30;;;;;;;6.20;4.90;;;;;;;9.60;100.00;99668.77;5030962;56;1136791;-68
2023/02/17 18:25:36;;;;;;;7.20;4.90;;;;;;;9.65;100.00;99662.59;5030709;56;1136631;-69
2023/02/17 18:30:42;;;;;;;4.20;3.80;;;;;;;9.67;100.00;99670.38;5027792;56;1136613;-71
2023/02/17 18:35:49;;;;;;;7.17;4.62;;;;;;;9.71;100.00;99656.78;5030498;57;1136624;-72
2023/02/17 18:40:55;;;;;;;6.67;4.43;;;;;;;9.74;100.00;99660.48;5050359;56;1137036;-73
2023/02/17 18:46:01;;;;;;;5.40;4.30;;;;;;;9.74;100.00;99651.23;5022569;56;1136828;-74
2023/02/17 18:51:11;;;;;;;6.63;4.80;;;;;;;9.73;100.00;99644.77;5013423;56;1136773;-70
2023/02/17 18:56:21;;;;;;;9.00;4.87;;;;;;;9.73;100.00;99640.33;4965583;57;1136647;-74
2023/02/17 19:01:35;;;;;;;4.90;4.45;;;;;;;9.72;100.00;99665.53;4958448;57;1136643;-72
2023/02/17 19:06:40;;;;;;;;;;;;;;;9.71;100.00;99668.66;4962471;57;1136839;-74
2023/02/17 19:12:15;;;;;;;5.87;4.40;;;;;;;9.78;100.00;99683.47;4932772;59;973972;-74
2023/02/17 19:17:40;;;;;;;5.05;4.50;;;;;;;9.80;100.00;99686.81;4971714;57;1134560;-74
2023/02/17 19:22:48;;;;;;;6.17;5.13;;;;;;;9.86;100.00;99642.23;4895534;56;1136565;-74
2023/02/17 19:27:54;;;;;;;6.30;4.87;;;;;;;9.83;100.00;99670.70;5009800;57;1136867;-71
2023/02/17 19:33:00;;;;;;;7.60;5.57;;;;;;;9.79;100.00;99706.27;4985182;56;1136771;-74
2023/02/17 19:54:35;;;;;;;5.13;3.93;;;;;;;9.63;100.00;99703.28;5102289;55;46793;-70
2023/02/17 19:59:41;;;;;;;3.00;2.50;;;;;;;9.24;100.00;99749.28;4831612;58;1132659;-72
2023/02/17 20:04:47;;;;;;;2.60;2.17;;;;;;;9.25;100.00;99758.04;4833046;57;1136714;-72
2023/02/17 20:09:52;;;;;;;4.63;2.50;;;;;;;9.24;100.00;99766.91;4873078;57;1136724;-69
2023/02/17 20:14:58;;;;;;;4.17;2.53;;;;;;;9.19;100.00;99768.61;4891011;57;1136798;-71
2023/02/17 20:20:04;;;;;;;3.37;3.00;;;;;;;9.15;100.00;99759.30;4955884;57;1136867;-70
2023/02/17 20:25:10;;;;;;;4.30;2.67;;;;;;;9.11;100.00;99761.84;4933504;57;1136750;-69
2023/02/17 20:30:16;;;;;;;1.50;1.35;;;;;;;9.05;100.00;99787.39;4912469;56;1136798;-70
2023/02/17 20:35:22;;;;;;;3.37;1.90;;;;;;;8.92;100.00;99792.02;4919392;57;1136902;-69
2023/02/17 20:40:27;;;;;;;5.77;1.90;;;;;;;8.80;100.00;99770.97;4856464;57;1136775;-70
2023/02/17 20:45:40;;;;;;;4.00;1.30;;;;;;;8.64;100.00;99777.61;4886624;57;1136789;-74
2023/02/17 20:50:46;;;;;;;7.47;1.85;;;;;;;8.51;100.00;99780.89;4980361;56;1136745;-70
2023/02/17 20:55:52;;;;;;;5.07;1.20;;;;;;;8.37;100.00;99768.36;5017690;56;1136900;-64
2023/02/17 21:00:57;;;;;;;12.77;1.37;;;;;;;8.25;100.00;99789.55;4990947;56;1136908;-73
2023/02/17 21:06:05;;;;;;;4.97;1.23;;;;;;;8.05;100.00;99789.31;5038768;56;1139120;-71
2023/02/17 21:11:11;;;;;;;8.38;1.30;;;;;;;7.95;100.00;99782.23;4998208;56;1136835;-70
2023/02/17 21:16:21;;;;;;;9.30;2.03;;;;;;;7.87;100.00;99789.44;5018239;56;1136773;-68
2023/02/17 21:21:28;;;;;;;1.93;0.90;;;;;;;7.79;100.00;99801.06;5037974;56;1136878;-73
2023/02/17 21:26:34;;;;;;;2.43;0.80;;;;;;;7.69;100.00;99791.70;5001512;56;1136692;-68
2023/02/17 21:31:40;;;;;;;4.10;1.10;;;;;;;7.64;100.00;99799.09;5006871;56;1136767;-74
2023/02/17 21:36:46;;;;;;;7.23;1.83;;;;;;;7.58;100.00;99810.11;5009273;56;1137042;-68
2023/02/17 21:41:52;;;;;;;8.30;1.93;;;;;;;7.54;100.00;99816.56;4970909;56;1136776;-74
2023/02/17 21:46:58;;;;;;;7.70;1.80;;;;;;;7.55;100.00;99830.08;4980263;56;1136746;-72
2023/02/17 21:52:05;;;;;;;9.37;2.03;;;;;;;7.57;100.00;99838.70;5030636;56;1136826;-64
2023/02/17 21:57:10;;;;;;;7.63;2.20;;;;;;;7.60;100.00;99843.73;4975844;56;1136848;-69
2023/02/17 22:02:16;;;;;;;9.93;1.70;;;;;;;7.59;100.00;99832.00;4987694;56;1136780;-71
2023/02/17 22:07:22;;;;;;;9.60;1.90;;;;;;;7.56;100.00;99853.28;5012257;56;1136841;-68
2023/02/17 22:12:29;;;;;;;8.03;1.77;;;;;;;7.49;100.00;99838.90;4966138;56;1134698;-71
2023/02/17 22:17:35;;;;;;;17.50;2.55;;;;;;;7.50;100.00;99865.58;5003946;55;1136979;-70
2023/02/17 22:22:41;;;;;;;6.55;1.42;;;;;;;7.46;100.00;99861.52;5037375;55;1138820;-70
2023/02/17 22:27:47;;;;;;;10.97;1.87;;;;;;;7.42;100.00;99860.91;5011930;55;1136806;-71
2023/02/17 22:32:56;;;;;;;7.80;1.97;;;;;;;7.35;100.00;99869.72;5003667;55;1136836;-72
2023/02/17 22:38:03;;;;;;;17.03;2.70;;;;;;;7.32;100.00;99888.38;5018032;55;1134721;-72
2023/02/17 22:43:09;;;;;;;6.40;1.73;;;;;;;7.30;100.00;99895.55;4994731;56;1136817;-74
2023/02/17 22:48:15;;;;;;;6.17;3.50;;;;;;;7.28;100.00;99886.92;4978998;56;1134714;-71
2023/02/17 22:53:21;;;;;;;13.57;2.60;;;;;;;7.31;100.00;99912.17;4986587;56;1134872;-75
2023/02/17 22:58:28;;;;;;;12.25;3.25;;;;;;;7.28;100.00;99900.08;4962307;56;1137171;-78
2023/02/17 23:03:35;;;;;;;14.35;2.35;;;;;;;7.25;100.00;99923.97;4968449;56;1136738;-75
2023/02/17 23:08:42;;;;;;;11.88;2.27;;;;;;;7.29;100.00;99930.69;4989930;55;1137018;-72
2023/02/17 23:13:47;;;;;;;19.20;2.40;;;;;;;7.28;100.00;99929.48;4974117;56;1136783;-72
2023/02/17 23:18:53;;;;;;;11.40;2.23;;;;;;;7.28;100.00;99934.75;4973216;56;1136794;-75
2023/02/17 23:24:00;;;;;;;12.27;2.00;;;;;;;7.24;100.00;99943.80;4989064;56;1136738;-72
2023/02/17 23:29:06;;;;;;;16.03;2.63;;;;;;;7.24;100.00;99946.44;4936409;57;1136731;-75
2023/02/17 23:34:15;;;;;;;9.43;1.50;;;;;;;7.24;100.00;99948.59;5000233;57;1136981;-71